Naše Štatistiky




Celkové štatistiky webu:
tip OK 187530 tip KO 247678 | Priemerný OK kurz: 2.21 | Priemerný KO kurz: 3.69

Kliknutím na daný nick v tabuľke získate prehľad jeho zápasov. Nájdi zápasy od nicku:
Vyhľadaj tipy pre daný šport:


tip OK OK tip | tip KO KO tip | tip nevyhodnoteny Nevyhodnotený tip | tip storno Storno tip

<< < 8509 | 8510 | 8511 | 8512 | 8513 | 8514 | 8515 | 8516 | 8517 | 8518 > >>
 Nick   Dátum   Šport   Zápas   Tip   Vklad (Dôvera)   Kurz   Výsledok   Zadanie tipu   
 laci74   20.02.2012 Ľadový hokej  NY Islanders - Ottawa   over 5.5   5   1.850   0:6   2012-02-20 17:12:00 tip OK
 hegi007   20.02.2012 Futbal  Bursaspor-Büyüksehir Bel.   počet golov 2,5 under   6   1.700   2:1   2012-02-20 15:42:00 tip KO
 Mattix   20.02.2012 Futbal  V.Guimaraes - Benfica L.   2   6   1.570   1:0   2012-02-20 13:56:00 tip KO
 yyyy   20.02.2012 Tenis  Tomič - Dodig   vyhrá Dodig v hcp+4,5   6   1.550   1:2   2012-02-20 13:25:00 tip OK
 Mattix   20.02.2012 Tenis  Hernych J. - Goffin D.   2   6   1.650   0:2   2012-02-20 13:15:00 tip OK
 madridas   20.02.2012 Ľadový hokej  Biele Tigre-Strieb.Levy   1   6   1.750   1:3   2012-02-20 12:48:00 tip KO
 madridas   20.02.2012 Tenis  Erakovic M.-Stephens Sl.   1   6   1.670   2:1   2012-02-20 12:47:00 tip OK
 madridas   20.02.2012 Tenis  Watson H.-Arvidsson S.   1   6   1.800   0:2   2012-02-20 12:46:00 tip KO
 vespasianus   20.02.2012 Futbal  Bucaspor Izmir-Kartalspor   2   10   3.600   0:2   2012-02-20 12:43:00 tip OK
 kevee   20.02.2012 Futbal  Š.Jaroslavľ-Jekaterinburg   1   4   3.200   0:1   2012-02-20 12:40:00 tip KO
 kevee   20.02.2012 Ľadový hokej  Tolpar Ufa-SKA 1946   2   5   3.190   6:1   2012-02-20 12:37:00 tip KO
 steven   20.02.2012 Tenis  Gofiin - Hernych   1   7   1.580   2:0   2012-02-20 12:37:00 tip OK
 kevee   20.02.2012 Ľadový hokej  Ol. Kirovo-Čep.-Junosť Minsk   2   5   2.240   4:5   2012-02-20 12:35:00 tip OK
 Bonifac2   20.02.2012 Tenis  Ferrero - Nishikori   hcp 2,5 : 0 ... 1   9   1.670   1:2   2012-02-20 12:20:00 tip KO
 Bonifac2   20.02.2012 Tenis  Bagnis F. - Mayer L.   hcp 0 : 4,5 ... 2   10   1.670   2:1   2012-02-20 12:18:00 tip OK
 Bonifac2   20.02.2012 Tenis  Ito - Chudinelli   1   8   2.250   0:2   2012-02-20 12:15:00 tip KO
 UsainBolt   20.02.2012 Basketbal  Frisko Brno-Hr.Králové    over 152,5   6   1.850   73:67pp   2012-02-20 12:01:00 tip KO
 R1   20.02.2012 Tenis  Goffin - Hernych   1   8   1.720   2:0   2012-02-20 11:52:00 tip OK
 R1   20.02.2012 Futbal  Bursaspor - Buyuksehir   1   7   1.910   2:1   2012-02-20 11:52:00 tip OK
 R1   20.02.2012 Futbal  Nantes - Metz   1   6   1.950   0:0   2012-02-20 11:50:00 tip KO
 UsainBolt   20.02.2012 Volejbal  Panathinaikos-AO Kifisias   2   8   1.750   0:3   2012-02-20 11:45:00 tip OK
 Newko   20.02.2012 Ľadový hokej  Skelleftea-Timra   1 tretina - 1   7   1.820   1:0   2012-02-20 11:16:00 tip OK
 Newko   20.02.2012 Ľadový hokej  Dukla Jihlava-Hr.Králové   1   8   1.600   4:5pp   2012-02-20 11:15:00 tip KO
 steven   20.02.2012 Tenis  Donskoy - Červenák   1   7   1.550   2:0   2012-02-20 10:33:00 tip OK
 steven   20.02.2012 Tenis  Hájek - Naso   1   7   1.500   2:0   2012-02-20 10:32:00 tip OK
 Morpheus   20.02.2012 Futbal  Aue-Braunschweig    1   5   2.690   1:1   2012-02-20 09:27:00 tip KO
 Morpheus   20.02.2012 Futbal  Nantes-Metz    1   7   1.900   0:0   2012-02-20 09:26:00 tip KO
 Morpheus   20.02.2012 Futbal  Tigre-San Martín    1   7   1.900   3:1   2012-02-20 09:25:00 tip OK
 steve81   20.02.2012 Ľadový hokej  SEVERSTAL ČEREPOVEC - VÍŤAZ ČECHOV   over 4,5   7   1.570   8:2   2012-02-20 07:32:00 tip OK
 mozok   19.02.2012 Ľadový hokej  Dallas-Nashville   1   6   2.400   2:3   2012-02-19 23:17:00 tip KO
 mozok   19.02.2012 Ľadový hokej  NY Rangers-Columbus   over 5,5 g.   7   1.850   3:2pp   2012-02-19 23:14:00 tip KO
 mozok   19.02.2012 Ľadový hokej  Florida-Anaheim   X   5   3.740   0:2   2012-02-19 23:12:00 tip KO
 Chris   20.02.2012 Basketbal  Houston-Utah   Kevin Martin 19,5 over   8   1.800   11   2012-02-19 23:10:00 tip KO
 voter   20.02.2012 Ľadový hokej  Edmonton - Vancouver   X   4   3.740   2:5   2012-02-19 23:07:00 tip KO
 Chris   20.02.2012 Basketbal  Phoenix-La Lakers   K.Bryant 28,5 over   8   1.800   32   2012-02-19 23:07:00 tip OK
 Chris   20.02.2012 Basketbal  Minnesota-Philadelphia   2   8   1.950   92:91   2012-02-19 23:04:00 tip KO
 voter   19.02.2012 Ľadový hokej  Florida - Anaheim   1   5   2.300   0:2   2012-02-19 22:52:00 tip KO
 slaven   20.02.2012 Basketbal  Minnesota Timberwolves - Philadelphia 76ers   2   6   1.952   92:91   2012-02-19 22:51:00 tip KO
 gustavedore   19.02.2012 Ľadový hokej  florida-anahaim   1   5   2.200   0:2   2012-02-19 21:52:00 tip KO
 skočko   19.02.2012 Ľadový hokej  Wild - Bruins   2   4   1.900   2:0   2012-02-19 20:45:00 tip KO
 maTAKtik   19.01.2012 Futbal  Paríž St.G.-Montpellier   2x   7   1.900   2:2   2012-02-19 20:31:00 tip OK
 maTAKtik   19.01.2012 Futbal  Udinese-Cagliari   2x   7   1.760   0:0   2012-02-19 20:30:00 tip OK
 maTAKtik   19.01.2012 Futbal  Palermo-Lazio   1   7   2.200   5:1   2012-02-19 20:30:00 tip OK
 Michalides   19.02.2012 Futbal  Udinese vs Cagliari   2   5   4.330   0:0   2012-02-19 19:48:00 tip KO
 bufo   19.02.2012 Tenis  Kudla-Kendrick    1   8   1.670   0:2   2012-02-19 19:21:00 tip KO
 paces   19.02.2012 Ľadový hokej  Minnesota-Boston   víťaz do rozhodnutia 1   6   2.250   2:0   2012-02-19 19:03:00 tip OK
 paces   19.02.2012 Futbal  Palermo-Lazio   1   7   2.200   5:1   2012-02-19 19:01:00 tip OK
 paces   19.02.2012 Futbal  Barcelona-Valencia   2   5   8.840   5:1   2012-02-19 18:59:00 tip KO
 steve81   19.02.2012 Basketbal  New York Knicks - Dallas Mavericks   2   6   1.670   104:97   2012-02-19 17:52:00 tip KO
 laci74   19.02.2012 Ľadový hokej  NY Rangers-Columbus   1.tretina 1   5   2.020   1:0   2012-02-19 16:33:00 tip OK
<< < 8509 | 8510 | 8511 | 8512 | 8513 | 8514 | 8515 | 8516 | 8517 | 8518 > >>





Injuries and Suspensions